Flight Track Log - Related Links

Times and Time Zones

All times are in EDT time to prevent confusion due to time zone crossing. See the KAP550 flight status page for this flight to view local times or setup timezone preferences in your user account.

Time Position Orientation Groundspeed Altitude Reporting Facility
EDT Latitude Longitude Course Direction KTS MPH feet Rate Location/Type
Thu 10:45:01 AM 42.7672 -73.8061 352° North 103 119 1,100  Level Boston Center
Thu 10:46:02 AM 42.7986 -73.8125 352° North 117 135 2,100 843 Climbing Boston Center
Thu 10:47:02 AM 42.8339 -73.8217 349° North 134 154 2,800 744 Climbing Boston Center
Thu 10:48:03 AM 42.8756 -73.8283 353° North 145 167 3,600 787 Climbing Boston Center
Thu 10:49:04 AM 42.9128 -73.8378 349° North 142 163 4,400 793 Climbing Boston Center
Thu 10:50:04 AM 42.9481 -73.8497 346° North 135 155 5,200 793 Climbing Boston Center
Thu 10:51:05 AM 42.9875 -73.8592 350° North 131 151 6,000 738 Climbing Boston Center
Thu 10:52:06 AM 43.0272 -73.8686 350° North 140 161 6,700 595 Climbing Boston Center
Thu 10:53:06 AM 43.0686 -73.8781 351° North 156 180 7,200 248 Climbing Boston Center
Thu 10:54:07 AM 43.1164 -73.8936 347° North 182 209 7,200 -50 Level Boston Center
Thu 10:55:06 AM 43.1683 -73.9033 352° North 196 226 7,100 -50 Descending Boston Center
Thu 10:56:06 AM 43.2161 -73.9131 352° North 202 232 7,100  Level Boston Center
Thu 10:57:06 AM 43.2786 -73.9258 352° North 219 252 7,100  Level Boston Center
Thu 10:58:06 AM 43.3264 -73.9386 349° North 198 228 7,100  Level Boston Center
Thu 10:59:06 AM 43.3867 -73.9514 351° North 198 228 7,100  Level Boston Center
Thu 11:00:06 AM 43.4428 -73.9669 349° North 203 234 7,100  Level Boston Center
Thu 11:01:06 AM 43.4986 -73.9800 350° North 198 228 7,100  Level Boston Center
Thu 11:02:06 AM 43.5506 -73.9928 350° North 198 228 7,100  Level Boston Center
Thu 11:03:06 AM 43.6003 -74.0197 339° North 198 228 7,100  Level Boston Center
Thu 11:04:06 AM 43.6500 -74.0469 338° Northwest 198 228 7,100  Level Boston Center
Thu 11:05:06 AM 43.6933 -74.0767 334° Northwest 192 221 7,100  Level Boston Center
Thu 11:06:06 AM 43.7408 -74.1039 338° Northwest 192 221 7,100 250 Level Boston Center
Thu 11:07:06 AM 43.7864 -74.1311 337° Northwest 187 215 7,600 400 Climbing Boston Center
Thu 11:08:06 AM 43.8297 -74.1553 338° Northwest 174 200 7,900 250 Climbing Boston Center
Thu 11:09:06 AM 43.8731 -74.1853 333° Northwest 169 194 8,100 100 Climbing Boston Center
Thu 11:10:06 AM 43.9206 -74.2128 337° Northwest 174 200 8,100 -50 Level Boston Center
Thu 11:11:06 AM 43.9681 -74.2400 338° Northwest 174 200 8,000 -50 Descending Boston Center
Thu 11:12:06 AM 44.0156 -74.2703 335° Northwest 174 200 8,000 50 Level Boston Center
Thu 11:13:06 AM 44.0650 -74.2981 338° Northwest 179 206 8,100 300 Climbing Boston Center
Thu 11:14:06 AM 44.1083 -74.3253 336° Northwest 179 206 8,600 450 Climbing Boston Center
Thu 11:15:06 AM 44.1475 -74.3497 336° Northwest 166 191 9,000 350 Climbing Boston Center
Thu 11:16:06 AM 44.1950 -74.3772 337° Northwest 166 191 9,300 250 Climbing Boston Center
Thu 11:17:06 AM 44.2406 -74.4019 339° North 171 197 9,500 100 Climbing Boston Center
Thu 11:18:06 AM 44.2878 -74.4353 333° Northwest 171 197 9,500  Level Boston Center
Thu 11:19:06 AM 44.3331 -74.4631 336° Northwest 171 197 9,500  Level Boston Center
Thu 11:20:06 AM 44.3806 -74.4908 337° Northwest 171 197 9,500 150 Level Boston Center
Thu 11:21:06 AM 44.4300 -74.5217 336° Northwest 177 204 9,800 -200 Climbing Boston Center
Thu 11:22:06 AM 44.4775 -74.5522 335° Northwest 177 204 9,100 -800 Descending Boston Center
Thu 11:23:06 AM 44.5292 -74.5744 343° North 182 209 8,200 -900 Descending Boston Center
Thu 11:24:06 AM 44.5769 -74.5850 351° North 183 211 7,300 -850 Descending Boston Center
Thu 11:25:06 AM 44.6219 -74.6247 328° Northwest 183 211 6,500 -850 Descending Boston Center
Thu 11:26:06 AM 44.6606 -74.6669 322° Northwest 183 211 5,600 -550 Descending Boston Center
Thu 11:27:06 AM 44.7056 -74.7125 324° Northwest 183 211 5,400 -200 Descending Boston Center

Login

Don't have an account? Register now (free) for customized features, flight alerts, and more!